createdAt,value
2019-02-12T00:04:14.875Z,13.03
2019-02-12T00:09:20.167Z,14.40
2019-02-12T00:14:25.476Z,10.03
2019-02-12T00:19:31.605Z,10.20
2019-02-12T00:24:36.867Z,8.83
2019-02-12T00:29:42.182Z,8.23
2019-02-12T00:34:48.054Z,11.35
2019-02-12T00:39:54.470Z,11.43
2019-02-12T00:45:00.775Z,9.23
2019-02-12T00:50:10.915Z,8.18
2019-02-12T00:55:16.189Z,7.10
2019-02-12T01:00:22.808Z,11.40
2019-02-12T01:05:28.028Z,8.25
2019-02-12T01:10:33.331Z,7.70
2019-02-12T01:15:38.590Z,10.30
2019-02-12T01:20:43.848Z,6.53
2019-02-12T01:25:49.100Z,8.73
2019-02-12T01:30:54.365Z,7.15
2019-02-12T01:35:59.701Z,4.62
2019-02-12T01:41:06.369Z,4.60
2019-02-12T01:46:11.628Z,6.05
2019-02-12T01:51:16.888Z,5.22
2019-02-12T01:56:22.131Z,7.10
2019-02-12T02:01:27.869Z,4.62
2019-02-12T02:06:33.110Z,9.55
2019-02-12T02:11:38.372Z,6.72
2019-02-12T02:16:43.618Z,4.50
2019-02-12T02:21:48.929Z,2.33
2019-02-12T02:26:54.164Z,2.72
2019-02-12T02:31:59.658Z,2.83
2019-02-12T02:37:04.983Z,1.83
2019-02-12T02:42:10.233Z,1.80
2019-02-12T02:47:15.485Z,4.30
2019-02-12T02:52:20.769Z,7.78
2019-02-12T02:57:25.985Z,3.60
2019-02-12T03:02:31.280Z,4.50
2019-02-12T03:07:36.523Z,8.05
2019-02-12T03:12:41.763Z,6.37
2019-02-12T03:17:47.078Z,6.30
2019-02-12T03:22:52.369Z,2.42
2019-02-12T03:27:57.763Z,2.80
2019-02-12T03:33:03.019Z,6.60
2019-02-12T03:38:08.587Z,5.40
2019-02-12T03:43:14.278Z,3.55
2019-02-12T03:48:21.235Z,5.23
2019-02-12T03:53:26.421Z,5.30
2019-02-12T03:58:31.667Z,8.58
2019-02-12T04:03:36.979Z,8.38
2019-02-12T04:08:42.234Z,3.47
2019-02-12T04:13:47.483Z,4.05
2019-02-12T04:18:52.717Z,5.60
2019-02-12T04:23:58.054Z,6.83
2019-02-12T04:29:03.303Z,13.38
2019-02-12T04:34:08.568Z,8.03
2019-02-12T04:39:13.833Z,6.75
2019-02-12T04:44:19.212Z,9.55
2019-02-12T04:49:24.651Z,6.67
2019-02-12T04:54:29.892Z,4.17
2019-02-12T04:59:35.152Z,6.62
2019-02-12T05:04:40.391Z,5.53
2019-02-12T05:09:46.777Z,9.30
2019-02-12T05:14:52.043Z,10.30
2019-02-12T05:19:57.316Z,4.12
2019-02-12T05:25:02.578Z,7.20
2019-02-12T05:30:13.185Z,8.20
2019-02-12T05:35:18.441Z,14.07
2019-02-12T05:40:23.703Z,8.53
2019-02-12T05:45:28.938Z,9.17
2019-02-12T05:50:34.179Z,8.55
2019-02-12T05:55:39.437Z,8.30
2019-02-12T06:00:44.694Z,9.70
2019-02-12T06:05:49.944Z,8.87
2019-02-12T06:10:55.182Z,11.53
2019-02-12T06:16:00.539Z,10.08
2019-02-12T06:21:05.796Z,9.83
2019-02-12T06:26:11.124Z,11.12
2019-02-12T06:31:16.535Z,10.27
2019-02-12T06:36:21.834Z,8.00
2019-02-12T06:41:27.097Z,5.92
2019-02-12T06:46:32.346Z,8.63
2019-02-12T06:51:37.589Z,8.03
2019-02-12T06:56:42.835Z,7.30
2019-02-12T07:01:48.122Z,11.45
2019-02-12T07:07:05.759Z,9.53
2019-02-12T07:12:26.327Z,11.10
2019-02-12T07:17:40.626Z,8.93
2019-02-12T07:22:51.802Z,12.28
2019-02-12T07:28:22.428Z,9.73
2019-02-12T07:33:50.574Z,7.80
2019-02-12T07:39:29.290Z,9.95
2019-02-12T07:44:59.430Z,6.78
2019-02-12T07:50:23.075Z,10.75
2019-02-12T07:55:31.587Z,15.43
2019-02-12T08:00:58.030Z,10.75
2019-02-12T08:06:12.574Z,8.10
2019-02-12T08:11:39.127Z,8.50
2019-02-12T08:17:07.222Z,16.67
2019-02-12T08:22:27.868Z,11.90
2019-02-12T08:27:52.968Z,23.73
2019-02-12T08:33:07.561Z,8.28
2019-02-12T08:38:16.056Z,9.97
2019-02-12T08:43:42.300Z,8.20
2019-02-12T08:48:52.437Z,6.25
2019-02-12T08:54:09.796Z,9.70
2019-02-12T08:59:42.559Z,9.03
2019-02-12T09:04:53.665Z,12.70
2019-02-12T09:10:27.812Z,15.25
2019-02-12T09:15:51.369Z,9.25
2019-02-12T09:21:11.159Z,10.70
2019-02-12T09:26:43.612Z,12.13
2019-02-12T09:32:17.663Z,8.75
2019-02-12T09:37:44.127Z,9.08
2019-02-12T09:42:57.068Z,9.03
2019-02-12T09:48:08.340Z,14.85
2019-02-12T09:53:34.331Z,12.90
2019-02-12T09:58:48.338Z,8.33
2019-02-12T10:04:11.646Z,8.68
2019-02-12T10:09:41.423Z,9.60
2019-02-12T10:14:55.557Z,8.28
2019-02-12T10:20:07.018Z,13.15
2019-02-12T10:25:18.601Z,10.90
2019-02-12T10:30:35.781Z,9.83
2019-02-12T10:35:41.140Z,9.48
2019-02-12T10:40:46.466Z,10.53
2019-02-12T10:45:51.662Z,7.87
2019-02-12T10:50:57.974Z,9.23
2019-02-12T10:56:04.637Z,9.28
2019-02-12T11:01:10.010Z,7.67
2019-02-12T11:06:16.340Z,8.88
2019-02-12T11:11:22.585Z,11.48
2019-02-12T11:16:27.867Z,11.65
2019-02-12T13:15:34.898Z,11.90
2019-02-12T13:20:40.368Z,10.82
2019-02-12T13:25:45.594Z,9.55
2019-02-12T13:30:50.881Z,11.90
2019-02-12T13:35:56.128Z,10.13
2019-02-12T13:41:02.442Z,7.75
2019-02-12T13:46:07.712Z,8.15
2019-02-12T13:51:12.962Z,8.10
2019-02-12T13:56:18.236Z,10.65
2019-02-12T14:01:23.520Z,7.75
2019-02-12T14:06:28.892Z,7.97
2019-02-12T14:11:34.148Z,9.88
2019-02-12T15:27:55.257Z,5.47
2019-02-12T15:33:00.531Z,9.80
2019-02-12T15:38:05.786Z,8.13
2019-02-12T15:43:11.152Z,13.53
2019-02-12T15:48:16.393Z,9.00
2019-02-12T15:53:21.583Z,9.83
2019-02-12T15:58:28.321Z,8.98
2019-02-12T16:03:34.483Z,8.35
2019-02-12T16:08:40.670Z,7.45
2019-02-12T16:13:45.949Z,12.37
2019-02-12T16:18:51.205Z,7.42
2019-02-12T16:23:56.460Z,10.75
2019-02-12T16:29:01.769Z,11.78
2019-02-12T16:34:07.045Z,10.28
2019-02-12T16:39:12.416Z,16.82
2019-02-12T16:44:17.704Z,16.57
2019-02-12T16:49:23.236Z,15.38
2019-02-12T16:54:28.702Z,21.02
2019-02-12T16:59:33.984Z,18.82
2019-02-12T17:04:39.311Z,25.57
2019-02-12T17:09:52.164Z,26.68
2019-02-12T17:14:51.502Z,14.87
2019-02-12T17:19:56.749Z,22.17
2019-02-12T17:25:02.050Z,17.05
2019-02-12T17:30:12.676Z,11.85
2019-02-12T17:35:18.026Z,15.88
2019-02-12T17:40:23.494Z,15.70
2019-02-12T17:45:28.800Z,15.50
2019-02-12T17:50:34.547Z,16.82
2019-02-12T17:55:40.161Z,10.72
2019-02-12T18:00:45.886Z,17.32
2019-02-12T18:05:51.171Z,16.27
2019-02-12T18:10:56.460Z,13.93
2019-02-12T18:16:01.978Z,13.13
2019-02-12T18:21:07.270Z,20.75
2019-02-12T18:26:12.544Z,14.80
2019-02-12T18:31:19.060Z,13.48
2019-02-12T18:36:24.423Z,22.05
2019-02-12T18:41:29.682Z,11.15
2019-02-12T18:46:35.403Z,15.38
2019-02-12T18:51:40.648Z,15.35
2019-02-12T18:56:45.977Z,14.90
2019-02-12T19:01:51.220Z,14.75
2019-02-12T19:06:56.486Z,15.70
2019-02-12T19:12:01.699Z,16.00
2019-02-12T19:17:06.971Z,11.83
2019-02-12T19:22:12.235Z,17.67
2019-02-12T19:27:17.503Z,16.47
2019-02-12T19:32:22.757Z,16.73
2019-02-12T19:37:28.134Z,21.77
2019-02-12T19:42:33.555Z,19.62
2019-02-12T19:47:38.822Z,18.03
2019-02-12T19:52:44.013Z,19.82
2019-02-12T19:57:49.265Z,22.32
2019-02-12T20:02:54.522Z,23.27
2019-02-12T20:07:59.794Z,21.27
2019-02-12T20:13:05.063Z,18.25
2019-02-12T20:18:10.337Z,22.33
2019-02-12T20:23:15.602Z,27.70
2019-02-12T20:28:20.851Z,29.00
2019-02-12T20:33:26.246Z,24.05
2019-02-12T20:38:31.514Z,26.75
2019-02-12T20:43:36.770Z,27.07
2019-02-12T20:48:42.007Z,30.53
2019-02-12T20:53:47.281Z,26.70
2019-02-12T20:58:52.532Z,35.13
2019-02-12T21:03:57.803Z,27.45
2019-02-12T21:09:03.130Z,26.53
2019-02-12T21:14:09.599Z,32.60
2019-02-12T21:19:15.976Z,35.90
2019-02-12T21:24:21.242Z,30.27
2019-02-12T21:29:26.581Z,32.95
2019-02-12T21:34:34.534Z,56.58
2019-02-12T21:39:39.844Z,32.30
2019-02-12T21:44:45.152Z,29.32
2019-02-12T21:49:50.412Z,25.47
2019-02-12T21:54:55.651Z,30.52
2019-02-12T22:00:00.932Z,34.15
2019-02-12T22:05:08.943Z,31.47
2019-02-12T22:10:25.992Z,26.02
2019-02-12T22:15:31.551Z,26.73
2019-02-12T22:20:37.033Z,23.03
2019-02-12T22:25:42.298Z,36.27
2019-02-12T22:30:47.557Z,49.42
2019-02-12T22:35:54.695Z,28.63
2019-02-12T22:41:01.695Z,28.07
2019-02-12T22:46:06.951Z,36.10
2019-02-12T22:51:12.205Z,30.73
2019-02-12T22:56:17.452Z,28.40
2019-02-12T23:01:24.332Z,21.60
2019-02-12T23:06:29.666Z,20.27
2019-02-12T23:11:34.914Z,29.90
2019-02-12T23:16:40.170Z,26.00
2019-02-12T23:21:45.446Z,23.37
2019-02-12T23:26:50.734Z,27.62
2019-02-12T23:31:56.067Z,21.05
2019-02-12T23:37:02.409Z,25.33
2019-02-12T23:42:07.667Z,37.33
2019-02-12T23:47:12.918Z,22.62
2019-02-12T23:52:18.186Z,26.93
2019-02-12T23:57:23.482Z,26.27
